FNBG

Benguela Airport

Benguela, Angola
METAR FNBG 200600Z 00000KT 9999 OVC020 26/23 Q1011
Observed Flight Rules
Feb-20 @ 06:00 UTC (2 hours ago) Marginal Visual Flight Rules
Wind Visibility Clouds
Calm 10,000+ meters
  • Overcast at 2,000' AGL
Temperatures Readings
Current 26°C / 79°F
Dewpoint 23°C / 73°F
Humidity 84%
Altimeter 29.85" Hg
Pressure 1011 hPa
Elevation 36
METAR FNBG 200600Z 00000KT 9999 OVC020 26/23 Q1011
Observed Flight Rules
Feb-20 @ 06:00 UTC
(2 hours ago)
MVFR
Wind Visibility
Calm 10,000+ meters
Clouds
  • Overcast at 2,000' AGL
Temperature Dewpoint
26°C / 79°F 23°C / 73°F
Humidity Altimeter Pressure
84% 29.85" Hg 1011 hPa